Time;durP1;ratioP1;P1;durP2;ratioP2;P2;SDS_P1;SDS_P2;PMS_P1;PMS_P2;Temp;Humidity;BMP_temperature;BMP_pressure;BME280_temperature;BME280_humidity;BME280_pressure;Samples;Min_cycle;Max_cycle;Signal;HPM_P1;HPM_P2
2022/04/24 00:01:57;;;;;;;;;;;;;;;;;;5108601;27;1148;-74
2022/04/24 00:04:24;;;;;;;;;;;;;;;;;;5099745;27;1327;-75
2022/04/24 00:06:51;;;;;;;;;;;;;;;;;;5129347;27;1967;-74
2022/04/24 00:09:16;;;;;;;;;;;;;;;;;;5107303;27;1199;-74
2022/04/24 00:11:42;;;;;;;;;;;;;;;;;;5116737;27;1198;-74
2022/04/24 00:14:10;;;;;;;;;;;;;;;;;;5102711;27;1368;-73
2022/04/24 00:16:36;;;;;;;;;;;;;;;;;;5127364;27;1230;-75
2022/04/24 00:19:01;;;;;;;;;;;;;;;;;;5109848;27;1360;-74
2022/04/24 00:21:27;;;;;;;;;;;;;;;;;;5108972;27;1357;-75
2022/04/24 00:23:52;;;;;;;;;;;;;;;;;;5108174;27;1197;-74
2022/04/24 00:26:17;;;;;;;;;;;;;;;;;;5124118;27;1893;-74
2022/04/24 00:28:42;;;;;;;;;;;;;;;;;;5090583;28;1395;-74
2022/04/24 00:31:07;;;;;;;;;;;;;;;;;;5105777;28;1160;-75
2022/04/24 00:33:33;;;;;;;;;;;;;;;;;;5108927;28;1127;-75
2022/04/24 00:35:58;;;;;;;;;;;;;;;;;;5104557;28;1212;-75
2022/04/24 00:38:23;;;;;;;;;;;;;;;;;;5091592;28;1328;-74
2022/04/24 00:40:48;;;;;;;;;;;;;;;;;;5116746;27;1135;-74
2022/04/24 00:43:14;;;;;;;;;;;;;;;;;;5127881;27;1119;-74
2022/04/24 00:45:39;;;;;;;;;;;;;;;;;;5128644;27;1929;-74
2022/04/24 00:48:05;;;;;;;;;;;;;;;;;;5127261;27;1228;-73
2022/04/24 00:50:30;;;;;;;;;;;;;;;;;;5126043;27;1131;-75
2022/04/24 00:52:57;;;;;;;;;;;;;;;;;;5102867;28;1232;-75
2022/04/24 00:55:23;;;;;;;;;;;;;;;;;;5122057;27;1243;-75
2022/04/24 00:57:49;;;;;;;;;;;;;;;;;;5125992;27;1209;-74
2022/04/24 01:00:14;;;;;;;;;;;;;;;;;;5125644;27;1243;-75
2022/04/24 01:02:40;;;;;;;;;;;;;;;;;;5126961;27;1136;-74
2022/04/24 01:05:07;;;;;;;;;;;;;;;;;;5124057;27;1910;-74
2022/04/24 01:07:36;;;;;;;;;;;;;;;;;;5109005;27;1199;-74
2022/04/24 01:10:01;;;;;;;;;;;;;;;;;;5106229;27;1519;-73
2022/04/24 01:12:27;;;;;;;;;;;;;;;;;;5089528;28;1364;-74
2022/04/24 01:14:52;;;;;;;;;;;;;;;;;;5103697;28;1132;-74
2022/04/24 01:17:18;;;;;;;;;;;;;;;;;;5123746;27;1035;-74
2022/04/24 01:19:44;;;;;;;;;;;;;;;;;;5104865;27;1488;-75
2022/04/24 01:22:09;;;;;;;;;;;;;;;;;;5103365;28;1205;-75
2022/04/24 01:24:38;;;;;;;;;;;;;;;;;;5083536;28;1180;-75
2022/04/24 01:27:04;;;;;;;;;;;;;;;;;;5086672;28;1909;-74
2022/04/24 01:29:29;;;;;;;;;;;;;;;;;;5088153;28;1416;-75
2022/04/24 01:31:54;;;;;;;;;;;;;;;;;;5113359;27;1194;-74
2022/04/24 01:34:26;;;;;;;;;;;;;;;;;;5125126;27;1044;-74
2022/04/24 01:36:52;;;;;;;;;;;;;;;;;;5113150;27;1306;-73
2022/04/24 01:39:17;;;;;;;;;;;;;;;;;;5101928;28;1156;-73
2022/04/24 01:41:43;;;;;;;;;;;;;;;;;;5104354;28;1135;-74
2022/04/24 01:44:08;;;;;;;;;;;;;;;;;;5104784;27;1419;-74
2022/04/24 01:46:33;;;;;;;;;;;;;;;;;;5125181;27;1973;-74
2022/04/24 01:48:58;;;;;;;;;;;;;;;;;;5127893;27;1291;-74
2022/04/24 01:51:24;;;;;;;;;;;;;;;;;;5121411;27;1159;-74
2022/04/24 01:53:49;;;;;;;;;;;;;;;;;;5114168;27;1191;-75
2022/04/24 01:56:14;;;;;;;;;;;;;;;;;;5085185;28;1275;-75
2022/04/24 01:58:40;;;;;;;;;;;;;;;;;;5103883;28;1494;-74
2022/04/24 02:01:06;;;;;;;;;;;;;;;;;;5118670;27;1203;-74
2022/04/24 02:03:31;;;;;;;;;;;;;;;;;;5125641;27;1304;-75
2022/04/24 02:05:57;;;;;;;;;;;;;;;;;;5122967;27;1978;-73
2022/04/24 02:08:22;;;;;;;;;;;;;;;;;;5122491;27;1103;-73
2022/04/24 02:10:48;;;;;;;;;;;;;;;;;;5124627;27;1485;-74
2022/04/24 02:13:13;;;;;;;;;;;;;;;;;;5103639;28;1671;-74
2022/04/24 02:15:39;;;;;;;;;;;;;;;;;;5106543;28;1182;-74
2022/04/24 02:18:09;;;;;;;;;;;;;;;;;;5104476;28;1269;-74
2022/04/24 02:20:34;;;;;;;;;;;;;;;;;;5086254;28;1421;-74
2022/04/24 02:23:01;;;;;;;;;;;;;;;;;;5118077;27;1144;-74
2022/04/24 02:25:27;;;;;;;;;;;;;;;;;;5109827;27;1943;-73
2022/04/24 02:27:53;;;;;;;;;;;;;;;;;;5125840;27;1187;-73
2022/04/24 02:30:19;;;;;;;;;;;;;;;;;;5125540;27;1408;-73
2022/04/24 02:32:45;;;;;;;;;;;;;;;;;;5114675;27;1265;-74
2022/04/24 02:35:10;;;;;;;;;;;;;;;;;;5101947;28;1178;-73
2022/04/24 02:37:39;;;;;;;;;;;;;;;;;;5121971;28;1364;-74
2022/04/24 02:40:09;;;;;;;;;;;;;;;;;;5123704;27;1190;-75
2022/04/24 02:42:36;;;;;;;;;;;;;;;;;;5109009;28;1150;-73
2022/04/24 02:45:02;;;;;;;;;;;;;;;;;;5112223;28;1373;-73
2022/04/24 02:47:28;;;;;;;;;;;;;;;;;;5115406;28;1971;-73
2022/04/24 02:49:53;;;;;;;;;;;;;;;;;;5106606;28;1155;-74
2022/04/24 02:52:18;;;;;;;;;;;;;;;;;;5125413;27;1218;-73
2022/04/24 02:54:44;;;;;;;;;;;;;;;;;;5124448;27;1115;-74
2022/04/24 02:57:12;;;;;;;;;;;;;;;;;;5125686;27;1186;-74
2022/04/24 02:59:38;;;;;;;;;;;;;;;;;;5123376;28;1296;-73
2022/04/24 03:02:04;;;;;;;;;;;;;;;;;;5086909;28;1266;-74
2022/04/24 03:04:29;;;;;;;;;;;;;;;;;;5099993;28;1206;-74
2022/04/24 03:06:54;;;;;;;;;;;;;;;;;;5119027;28;1877;-74
2022/04/24 03:09:19;;;;;;;;;;;;;;;;;;5111369;28;1135;-74
2022/04/24 03:11:44;;;;;;;;;;;;;;;;;;5105974;28;1148;-73
2022/04/24 03:14:11;;;;;;;;;;;;;;;;;;5114401;27;1155;-74
2022/04/24 03:16:36;;;;;;;;;;;;;;;;;;5103574;28;1294;-74
2022/04/24 03:19:01;;;;;;;;;;;;;;;;;;5117065;28;1140;-74
2022/04/24 03:21:27;;;;;;;;;;;;;;;;;;5084806;28;1184;-74
2022/04/24 03:23:52;;;;;;;;;;;;;;;;;;5117290;28;1077;-74
2022/04/24 03:26:18;;;;;;;;;;;;;;;;;;5124214;27;1889;-74
2022/04/24 03:28:44;;;;;;;;;;;;;;;;;;5116071;27;1230;-74
2022/04/24 03:31:09;;;;;;;;;;;;;;;;;;5105817;28;1208;-74
2022/04/24 03:33:34;;;;;;;;;;;;;;;;;;5106553;28;1125;-74
2022/04/24 03:35:59;;;;;;;;;;;;;;;;;;5105706;28;1135;-74
2022/04/24 03:38:24;;;;;;;;;;;;;;;;;;5106251;28;1202;-74
2022/04/24 03:40:50;;;;;;;;;;;;;;;;;;5109014;28;1206;-73
2022/04/24 03:43:16;;;;;;;;;;;;;;;;;;5107022;28;1254;-74
2022/04/24 03:45:41;;;;;;;;;;;;;;;;;;5091851;28;1987;-73
2022/04/24 03:48:07;;;;;;;;;;;;;;;;;;5106638;28;1286;-74
2022/04/24 03:50:32;;;;;;;;;;;;;;;;;;5104202;28;1159;-74
2022/04/24 03:52:57;;;;;;;;;;;;;;;;;;5091897;27;1250;-73
2022/04/24 03:55:22;;;;;;;;;;;;;;;;;;5125699;27;1187;-74
2022/04/24 03:57:47;;;;;;;;;;;;;;;;;;5101871;28;1223;-74
2022/04/24 04:00:14;;;;;;;;;;;;;;;;;;5108226;28;1167;-73
2022/04/24 04:02:46;;;;;;;;;;;;;;;;;;5108228;28;1042;-73
2022/04/24 04:05:11;;;;;;;;;;;;;;;;;;5121258;27;1886;-73
2022/04/24 04:07:37;;;;;;;;;;;;;;;;;;5104861;28;1258;-74
2022/04/24 04:10:03;;;;;;;;;;;;;;;;;;5089144;28;1168;-73
2022/04/24 04:12:28;;;;;;;;;;;;;;;;;;5108744;28;1116;-73
2022/04/24 04:14:53;;;;;;;;;;;;;;;;;;5107744;28;1244;-73
2022/04/24 04:17:19;;;;;;;;;;;;;;;;;;5109799;28;1317;-73
2022/04/24 04:19:44;;;;;;;;;;;;;;;;;;5088386;28;1364;-73
2022/04/24 04:22:10;;;;;;;;;;;;;;;;;;5109755;27;1241;-74
2022/04/24 04:24:36;;;;;;;;;;;;;;;;;;5107311;27;1084;-73
2022/04/24 04:27:03;;;;;;;;;;;;;;;;;;5121500;27;1901;-73
2022/04/24 04:29:29;;;;;;;;;;;;;;;;;;5095986;28;1353;-73
2022/04/24 04:31:54;;;;;;;;;;;;;;;;;;5109628;28;1365;-73
2022/04/24 04:34:21;;;;;;;;;;;;;;;;;;5108307;28;1270;-74
2022/04/24 04:36:46;;;;;;;;;;;;;;;;;;5108326;27;1242;-73
2022/04/24 04:39:12;;;;;;;;;;;;;;;;;;5126338;27;1144;-73
2022/04/24 04:41:37;;;;;;;;;;;;;;;;;;5124018;27;1324;-73
2022/04/24 04:44:02;;;;;;;;;;;;;;;;;;5106619;27;1421;-74
2022/04/24 04:46:27;;;;;;;;;;;;;;;;;;5109796;27;1890;-74
2022/04/24 04:48:53;;;;;;;;;;;;;;;;;;5129450;27;1139;-73
2022/04/24 04:51:19;;;;;;;;;;;;;;;;;;5127766;27;1202;-74
2022/04/24 04:53:45;;;;;;;;;;;;;;;;;;5126959;27;1176;-73
2022/04/24 04:56:10;;;;;;;;;;;;;;;;;;5092588;28;1441;-73
2022/04/24 04:58:35;;;;;;;;;;;;;;;;;;5106721;28;1131;-72
2022/04/24 05:01:00;;;;;;;;;;;;;;;;;;5107198;28;1120;-73
2022/04/24 05:03:26;;;;;;;;;;;;;;;;;;5091662;27;1384;-73
2022/04/24 05:05:51;;;;;;;;;;;;;;;;;;5115006;27;1898;-73
2022/04/24 05:08:16;;;;;;;;;;;;;;;;;;5110855;27;1124;-74
2022/04/24 05:10:42;;;;;;;;;;;;;;;;;;5122849;27;1282;-74
2022/04/24 05:13:07;;;;;;;;;;;;;;;;;;5127519;27;1162;-73
2022/04/24 05:15:32;;;;;;;;;;;;;;;;;;5093609;27;1217;-73
2022/04/24 05:17:58;;;;;;;;;;;;;;;;;;5103880;28;1295;-73
2022/04/24 05:20:23;;;;;;;;;;;;;;;;;;5107491;27;1203;-72
2022/04/24 05:22:48;;;;;;;;;;;;;;;;;;5087163;28;1368;-73
2022/04/24 05:25:14;;;;;;;;;;;;;;;;;;5122694;27;1878;-74
2022/04/24 05:27:42;;;;;;;;;;;;;;;;;;5119134;27;1148;-74
2022/04/24 05:30:08;;;;;;;;;;;;;;;;;;5128476;27;1214;-74
2022/04/24 05:32:38;;;;;;;;;;;;;;;;;;5093402;28;1298;-74
2022/04/24 05:35:03;;;;;;;;;;;;;;;;;;5110585;27;1302;-74
2022/04/24 05:37:32;;;;;;;;;;;;;;;;;;5105808;28;1202;-73
2022/04/24 05:39:57;;;;;;;;;;;;;;;;;;5105354;27;1298;-73
2022/04/24 05:42:25;;;;;;;;;;;;;;;;;;5126808;27;1447;-72
2022/04/24 05:44:50;;;;;;;;;;;;;;;;;;5128731;27;1075;-73
2022/04/24 05:47:15;;;;;;;;;;;;;;;;;;5125847;27;1905;-74
2022/04/24 05:49:41;;;;;;;;;;;;;;;;;;5105699;27;1254;-74
2022/04/24 05:52:07;;;;;;;;;;;;;;;;;;5128105;27;1203;-74
2022/04/24 05:54:36;;;;;;;;;;;;;;;;;;5094525;28;1182;-74
2022/04/24 05:57:02;;;;;;;;;;;;;;;;;;5088244;28;1323;-74
2022/04/24 05:59:27;;;;;;;;;;;;;;;;;;5103288;28;1180;-74
2022/04/24 06:01:52;;;;;;;;;;;;;;;;;;5087003;28;1131;-74
2022/04/24 06:04:19;;;;;;;;;;;;;;;;;;5093248;28;1186;-73
2022/04/24 06:06:44;;;;;;;;;;;;;;;;;;5106440;27;1960;-73
2022/04/24 06:09:10;;;;;;;;;;;;;;;;;;5123194;27;1147;-72
2022/04/24 06:11:35;;;;;;;;;;;;;;;;;;5119829;27;1155;-74
2022/04/24 06:14:00;;;;;;;;;;;;;;;;;;5126294;27;1124;-74
2022/04/24 06:16:29;;;;;;;;;;;;;;;;;;5117974;27;1189;-74
2022/04/24 06:18:55;;;;;;;;;;;;;;;;;;5121462;27;1150;-73
2022/04/24 06:21:20;;;;;;;;;;;;;;;;;;5124542;27;1193;-73
2022/04/24 06:23:45;;;;;;;;;;;;;;;;;;5122238;27;1267;-73
2022/04/24 06:26:11;;;;;;;;;;;;;;;;;;5128091;27;1940;-74
2022/04/24 06:28:36;;;;;;;;;;;;;;;;;;5122357;27;1189;-74
2022/04/24 06:31:01;;;;;;;;;;;;;;;;;;5104129;28;1282;-73
2022/04/24 06:33:27;;;;;;;;;;;;;;;;;;5102190;28;1190;-73
2022/04/24 06:35:53;;;;;;;;;;;;;;;;;;5106584;28;1135;-73
2022/04/24 06:38:19;;;;;;;;;;;;;;;;;;5084492;28;1361;-73
2022/04/24 06:40:45;;;;;;;;;;;;;;;;;;5100547;28;1151;-74
2022/04/24 06:43:10;;;;;;;;;;;;;;;;;;5101391;28;1237;-74
2022/04/24 06:45:36;;;;;;;;;;;;;;;;;;5101484;28;1910;-74
2022/04/24 06:48:02;;;;;;;;;;;;;;;;;;5102568;28;1171;-74
2022/04/24 06:50:33;;;;;;;;;;;;;;;;;;5102258;28;1084;-73
2022/04/24 06:52:59;;;;;;;;;;;;;;;;;;5101563;28;1240;-75
2022/04/24 06:55:34;;;;;;;;;;;;;;;;;;5117848;28;1199;-75
2022/04/24 06:58:00;;;;;;;;;;;;;;;;;;5125327;27;1099;-74
2022/04/24 07:00:30;;;;;;;;;;;;;;;;;;5122976;28;1406;-73
2022/04/24 07:02:56;;;;;;;;;;;;;;;;;;5121523;28;1380;-73
2022/04/24 07:05:22;;;;;;;;;;;;;;;;;;5120965;28;1963;-74
2022/04/24 07:07:47;;;;;;;;;;;;;;;;;;5107749;28;1238;-73
2022/04/24 07:10:13;;;;;;;;;;;;;;;;;;5083348;28;1329;-74
2022/04/24 07:12:48;;;;;;;;;;;;;;;;;;5100737;27;1182;-74
2022/04/24 07:15:13;;;;;;;;;;;;;;;;;;5129430;27;1123;-73
2022/04/24 07:17:40;;;;;;;;;;;;;;;;;;5127018;27;1233;-73
2022/04/24 07:20:05;;;;;;;;;;;;;;;;;;5108778;27;1102;-74
2022/04/24 07:22:40;;;;;;;;;;;;;;;;;;5127353;27;1037;-73
2022/04/24 07:25:05;;;;;;;;;;;;;;;;;;5108746;27;1534;-74
2022/04/24 07:27:31;;;;;;;;;;;;;;;;;;5106234;27;1957;-74
2022/04/24 07:29:59;;;;;;;;;;;;;;;;;;5122871;27;1236;-74
2022/04/24 07:32:24;;;;;;;;;;;;;;;;;;5115119;27;1115;-73
2022/04/24 07:34:49;;;;;;;;;;;;;;;;;;5116528;27;1285;-73
2022/04/24 07:37:14;;;;;;;;;;;;;;;;;;5129269;27;1191;-73
2022/04/24 07:39:43;;;;;;;;;;;;;;;;;;5122833;27;1214;-74
2022/04/24 07:42:08;;;;;;;;;;;;;;;;;;5126892;27;1136;-73
2022/04/24 07:44:37;;;;;;;;;;;;;;;;;;5103791;28;1433;-73
2022/04/24 07:47:02;;;;;;;;;;;;;;;;;;5088510;28;1979;-72
2022/04/24 07:49:27;;;;;;;;;;;;;;;;;;5090546;27;1191;-72
2022/04/24 07:51:52;;;;;;;;;;;;;;;;;;5115095;27;1207;-72
2022/04/24 07:54:18;;;;;;;;;;;;;;;;;;5106615;27;1147;-72
2022/04/24 07:56:46;;;;;;;;;;;;;;;;;;5111985;27;1191;-74
2022/04/24 07:59:14;;;;;;;;;;;;;;;;;;5126815;27;1371;-76
2022/04/24 08:01:39;;;;;;;;;;;;;;;;;;5122936;27;1205;-73
2022/04/24 08:04:04;;;;;;;;;;;;;;;;;;5103451;28;1373;-73
2022/04/24 08:06:30;;;;;;;;;;;;;;;;;;5110352;27;1893;-74
2022/04/24 08:08:55;;;;;;;;;;;;;;;;;;5124174;27;1624;-73
2022/04/24 08:11:23;;;;;;;;;;;;;;;;;;5097323;28;1224;-73
2022/04/24 08:13:48;;;;;;;;;;;;;;;;;;5123706;27;1101;-74
2022/04/24 08:16:14;;;;;;;;;;;;;;;;;;5127079;27;1307;-73
2022/04/24 08:18:39;;;;;;;;;;;;;;;;;;5125568;27;1094;-72
2022/04/24 08:21:19;;;;;;;;;;;;;;;;;;5121678;27;1136;-73
2022/04/24 08:23:45;;;;;;;;;;;;;;;;;;5096405;27;1190;-74
2022/04/24 08:26:10;;;;;;;;;;;;;;;;;;5110294;27;1886;-75
2022/04/24 08:28:36;;;;;;;;;;;;;;;;;;5114827;27;1545;-74
2022/04/24 08:31:02;;;;;;;;;;;;;;;;;;5106456;27;1399;-76
2022/04/24 08:33:27;;;;;;;;;;;;;;;;;;5111334;27;1159;-75
2022/04/24 08:35:53;;;;;;;;;;;;;;;;;;5121658;27;1183;-75
2022/04/24 08:38:18;;;;;;;;;;;;;;;;;;5121787;27;1194;-74
2022/04/24 08:40:44;;;;;;;;;;;;;;;;;;5103120;27;1195;-75
2022/04/24 08:43:12;;;;;;;;;;;;;;;;;;5117116;27;1201;-74
2022/04/24 08:45:40;;;;;;;;;;;;;;;;;;5125173;27;1925;-73
2022/04/24 08:48:06;;;;;;;;;;;;;;;;;;5124514;27;1256;-73
2022/04/24 08:50:32;;;;;;;;;;;;;;;;;;5123645;27;1311;-74
2022/04/24 08:52:57;;;;;;;;;;;;;;;;;;5128291;27;1201;-73
2022/04/24 08:55:24;;;;;;;;;;;;;;;;;;5126223;27;1187;-74
2022/04/24 08:57:49;;;;;;;;;;;;;;;;;;5123719;27;1210;-73
2022/04/24 09:00:17;;;;;;;;;;;;;;;;;;5107789;27;1312;-73
2022/04/24 09:02:45;;;;;;;;;;;;;;;;;;5108766;27;1056;-74
2022/04/24 09:05:10;;;;;;;;;;;;;;;;;;5101993;28;1171;-74
2022/04/24 09:07:45;;;;;;;;;;;;;;;;;;5102307;28;1992;-73
2022/04/24 09:10:12;;;;;;;;;;;;;;;;;;5089158;28;1210;-73
2022/04/24 09:12:44;;;;;;;;;;;;;;;;;;5088761;28;1388;-74
2022/04/24 09:15:15;;;;;;;;;;;;;;;;;;5124073;27;1069;-73
2022/04/24 09:17:41;;;;;;;;;;;;;;;;;;5123979;27;1437;-74
2022/04/24 09:20:19;;;;;;;;;;;;;;;;;;5121999;27;1211;-74
2022/04/24 09:22:45;;;;;;;;;;;;;;;;;;5122481;27;1234;-75
2022/04/24 09:25:12;;;;;;;;;;;;;;;;;;5124109;27;1156;-74
2022/04/24 09:27:38;;;;;;;;;;;;;;;;;;5107669;27;1878;-74
2022/04/24 09:30:14;;;;;;;;;;;;;;;;;;5107400;27;1203;-73
2022/04/24 09:32:47;;;;;;;;;;;;;;;;;;5125427;27;1222;-74
2022/04/24 09:35:26;;;;;;;;;;;;;;;;;;5120573;27;1319;-74
2022/04/24 09:37:51;;;;;;;;;;;;;;;;;;5120686;27;1352;-74
2022/04/24 09:40:16;;;;;;;;;;;;;;;;;;5102996;28;1175;-74
2022/04/24 09:43:02;;;;;;;;;;;;;;;;;;5102082;28;1404;-74
2022/04/24 09:45:27;;;;;;;;;;;;;;;;;;5122054;27;1906;-74
2022/04/24 09:47:56;;;;;;;;;;;;;;;;;;5121095;27;1394;-73
2022/04/24 09:50:22;;;;;;;;;;;;;;;;;;5121741;27;1223;-74
2022/04/24 09:52:48;;;;;;;;;;;;;;;;;;5090470;28;1315;-72
2022/04/24 09:55:14;;;;;;;;;;;;;;;;;;5089506;27;1301;-73
2022/04/24 09:57:49;;;;;;;;;;;;;;;;;;5101385;28;1213;-72
2022/04/24 10:00:15;;;;;;;;;;;;;;;;;;5103812;28;1385;-73
2022/04/24 10:02:47;;;;;;;;;;;;;;;;;;5103954;28;1297;-74
2022/04/24 10:05:14;;;;;;;;;;;;;;;;;;5103291;28;1202;-72
2022/04/24 10:07:39;;;;;;;;;;;;;;;;;;5100252;28;1893;-73
2022/04/24 10:10:06;;;;;;;;;;;;;;;;;;5101579;28;1080;-72
2022/04/24 10:12:32;;;;;;;;;;;;;;;;;;5104679;28;1136;-72
2022/04/24 10:15:00;;;;;;;;;;;;;;;;;;5101891;27;1346;-72
2022/04/24 10:17:48;;;;;;;;;;;;;;;;;;5103169;28;1206;-73
2022/04/24 10:20:19;;;;;;;;;;;;;;;;;;5102777;27;1213;-73
2022/04/24 10:22:52;;;;;;;;;;;;;;;;;;5103242;27;1355;-74
2022/04/24 10:25:28;;;;;;;;;;;;;;;;;;5103208;28;1377;-74
2022/04/24 10:27:53;;;;;;;;;;;;;;;;;;5119897;27;1119;-73
2022/04/24 10:30:22;;;;;;;;;;;;;;;;;;5107399;27;1314;-73
2022/04/24 10:33:06;;;;;;;;;;;;;;;;;;5121716;27;1158;-73
2022/04/24 10:35:32;;;;;;;;;;;;;;;;;;5121344;28;1170;-73
2022/04/24 10:38:05;;;;;;;;;;;;;;;;;;5102869;28;1263;-73
2022/04/24 10:40:30;;;;;;;;;;;;;;;;;;5121713;28;1185;-80
2022/04/24 10:43:04;;;;;;;;;;;;;;;;;;5104939;28;1202;-79
2022/04/24 10:45:32;;;;;;;;;;;;;;;;;;5114416;27;1968;-78
2022/04/24 10:48:03;;;;;;;;;;;;;;;;;;5105259;28;1590;-78
2022/04/24 10:50:28;;;;;;;;;;;;;;;;;;5098592;27;1418;-78
2022/04/24 10:52:57;;;;;;;;;;;;;;;;;;5118959;27;1306;-80
2022/04/24 10:55:29;;;;;;;;;;;;;;;;;;5106664;28;1327;-80
2022/04/24 10:58:00;;;;;;;;;;;;;;;;;;5115493;27;1123;-81
2022/04/24 11:00:31;;;;;;;;;;;;;;;;;;5128369;27;1147;-81
2022/04/24 11:03:04;;;;;;;;;;;;;;;;;;5117296;27;1197;-80
2022/04/24 11:05:35;;;;;;;;;;;;;;;;;;5115270;27;1889;-82
2022/04/24 11:08:03;;;;;;;;;;;;;;;;;;5105125;28;1168;-82
2022/04/24 11:10:29;;;;;;;;;;;;;;;;;;5102048;27;1196;-82
2022/04/24 11:12:55;;;;;;;;;;;;;;;;;;5124178;27;1076;-82
2022/04/24 11:15:21;;;;;;;;;;;;;;;;;;5125232;27;1182;-81
2022/04/24 11:17:46;;;;;;;;;;;;;;;;;;5094237;27;1395;-81
2022/04/24 11:20:16;;;;;;;;;;;;;;;;;;5095770;28;1216;-81
2022/04/24 11:23:08;;;;;;;;;;;;;;;;;;5110783;27;1143;-83
2022/04/24 11:25:38;;;;;;;;;;;;;;;;;;5118873;27;1889;-84
2022/04/24 11:28:03;;;;;;;;;;;;;;;;;;5114662;27;1104;-84
2022/04/24 11:30:33;;;;;;;;;;;;;;;;;;5115020;27;1279;-82
2022/04/24 11:33:06;;;;;;;;;;;;;;;;;;5115565;27;1256;-79
2022/04/24 11:35:33;;;;;;;;;;;;;;;;;;5111497;27;1242;-79
2022/04/24 11:37:59;;;;;;;;;;;;;;;;;;5117623;27;1205;-81
2022/04/24 11:40:24;;;;;;;;;;;;;;;;;;5096988;28;1360;-81
2022/04/24 11:43:10;;;;;;;;;;;;;;;;;;5116155;27;1286;-82
2022/04/24 11:51:17;;;;;;;;;;;;;;;;;;5119291;27;1179;-82
2022/04/24 11:53:43;;;;;;;;;;;;;;;;;;5120727;27;1175;-81
2022/04/24 11:56:10;;;;;;;;;;;;;;;;;;5117941;27;1147;-81
2022/04/24 11:58:36;;;;;;;;;;;;;;;;;;5123743;27;1135;-82
2022/04/24 12:01:07;;;;;;;;;;;;;;;;;;5117574;27;988;-80
2022/04/24 12:03:33;;;;;;;;;;;;;;;;;;5118381;27;1189;-86
2022/04/24 12:05:59;;;;;;;;;;;;;;;;;;5117196;27;1913;-80
2022/04/24 12:08:26;;;;;;;;;;;;;;;;;;5113127;27;1136;-81
2022/04/24 12:10:52;;;;;;;;;;;;;;;;;;5123691;27;1270;-81
2022/04/24 12:13:22;;;;;;;;;;;;;;;;;;5113698;27;1180;-77
2022/04/24 12:15:53;;;;;;;;;;;;;;;;;;5120315;27;1170;-81
2022/04/24 12:18:25;;;;;;;;;;;;;;;;;;5117518;27;1351;-89
2022/04/24 12:20:57;;;;;;;;;;;;;;;;;;5114854;27;1168;-86
2022/04/24 12:23:27;;;;;;;;;;;;;;;;;;5117615;27;1183;-85
2022/04/24 12:26:02;;;;;;;;;;;;;;;;;;5122256;27;1881;-85
2022/04/24 12:28:28;;;;;;;;;;;;;;;;;;5116193;27;1188;-83
2022/04/24 12:31:04;;;;;;;;;;;;;;;;;;5121524;27;1199;-84
2022/04/24 12:33:30;;;;;;;;;;;;;;;;;;5092926;28;1289;-86
2022/04/24 12:36:05;;;;;;;;;;;;;;;;;;5117694;27;1162;-83
2022/04/24 12:38:31;;;;;;;;;;;;;;;;;;5119245;27;1186;-80
2022/04/24 12:40:59;;;;;;;;;;;;;;;;;;5113958;27;1119;-87
2022/04/24 12:43:31;;;;;;;;;;;;;;;;;;5100286;28;1439;-81
2022/04/24 12:45:59;;;;;;;;;;;;;;;;;;5119228;27;1918;-79
2022/04/24 12:48:25;;;;;;;;;;;;;;;;;;5101816;28;1254;-79
2022/04/24 12:51:00;;;;;;;;;;;;;;;;;;5120824;27;1471;-84
2022/04/24 12:53:25;;;;;;;;;;;;;;;;;;5113600;27;1184;-80
2022/04/24 12:55:51;;;;;;;;;;;;;;;;;;5092547;27;1254;-83
2022/04/24 12:58:17;;;;;;;;;;;;;;;;;;5118983;27;1163;-88
2022/04/24 13:00:43;;;;;;;;;;;;;;;;;;5112656;27;1288;-81
2022/04/24 13:03:13;;;;;;;;;;;;;;;;;;5109259;27;1175;-81
2022/04/24 13:05:39;;;;;;;;;;;;;;;;;;5118053;27;1890;-80
2022/04/24 13:08:05;;;;;;;;;;;;;;;;;;5096977;27;1271;-82
2022/04/24 13:10:30;;;;;;;;;;;;;;;;;;5107584;27;1276;-79
2022/04/24 13:13:01;;;;;;;;;;;;;;;;;;5114908;27;1203;-81
2022/04/24 13:15:26;;;;;;;;;;;;;;;;;;5091953;28;1243;-79
2022/04/24 13:18:07;;;;;;;;;;;;;;;;;;5107038;27;1269;-79
2022/04/24 13:20:42;;;;;;;;;;;;;;;;;;5104012;28;1155;-80
2022/04/24 13:23:09;;;;;;;;;;;;;;;;;;5107007;27;1162;-78
2022/04/24 13:25:35;;;;;;;;;;;;;;;;;;5102632;28;1957;-77
2022/04/24 13:28:03;;;;;;;;;;;;;;;;;;5112143;27;1298;-79
2022/04/24 13:30:29;;;;;;;;;;;;;;;;;;5123960;27;1191;-79
2022/04/24 13:32:55;;;;;;;;;;;;;;;;;;5122611;27;1339;-80
2022/04/24 13:35:21;;;;;;;;;;;;;;;;;;5113015;27;1131;-78
2022/04/24 13:40:30;;;;;;;;;;;;;;;;;;5124931;27;1056;-79
2022/04/24 13:42:55;;;;;;;;;;;;;;;;;;5094577;28;1239;-78
2022/04/24 13:45:21;;;;;;;;;;;;;;;;;;5114608;27;1176;-78
2022/04/24 13:47:46;;;;;;;;;;;;;;;;;;5128817;27;1971;-79
2022/04/24 13:50:12;;;;;;;;;;;;;;;;;;5109011;27;1168;-79
2022/04/24 13:52:37;;;;;;;;;;;;;;;;;;5109682;28;1183;-81
2022/04/24 13:55:06;;;;;;;;;;;;;;;;;;5109840;27;1293;-80
2022/04/24 13:57:34;;;;;;;;;;;;;;;;;;5122589;27;1127;-78
2022/04/24 13:59:59;;;;;;;;;;;;;;;;;;5118233;27;1067;-81
2022/04/24 14:02:24;;;;;;;;;;;;;;;;;;5123069;27;1056;-80
2022/04/24 14:04:50;;;;;;;;;;;;;;;;;;5109474;27;1141;-81
2022/04/24 14:07:15;;;;;;;;;;;;;;;;;;5129013;27;1901;-80
2022/04/24 14:09:43;;;;;;;;;;;;;;;;;;5120000;27;1199;-79
2022/04/24 14:12:10;;;;;;;;;;;;;;;;;;5122906;27;1155;-79
2022/04/24 14:14:35;;;;;;;;;;;;;;;;;;5091003;28;1193;-79
2022/04/24 14:17:01;;;;;;;;;;;;;;;;;;5124224;27;1170;-79
2022/04/24 14:19:29;;;;;;;;;;;;;;;;;;5114131;27;1239;-81
2022/04/24 14:21:55;;;;;;;;;;;;;;;;;;5113223;28;1202;-82
2022/04/24 14:24:23;;;;;;;;;;;;;;;;;;5112653;27;1191;-77
2022/04/24 14:26:51;;;;;;;;;;;;;;;;;;5116372;27;1948;-80
2022/04/24 14:29:19;;;;;;;;;;;;;;;;;;5116743;27;1174;-78
2022/04/24 14:31:48;;;;;;;;;;;;;;;;;;5127767;27;1076;-79
2022/04/24 14:34:14;;;;;;;;;;;;;;;;;;5114688;27;1314;-82
2022/04/24 14:36:39;;;;;;;;;;;;;;;;;;5117596;28;1140;-79
2022/04/24 14:39:10;;;;;;;;;;;;;;;;;;5106988;28;1176;-79
2022/04/24 14:41:39;;;;;;;;;;;;;;;;;;5102108;28;1343;-80
2022/04/24 14:44:08;;;;;;;;;;;;;;;;;;5121116;28;1444;-79
2022/04/24 14:57:30;;;;;;;;;;;;;;;;;;5117294;28;1028;-79
2022/04/24 14:59:56;;;;;;;;;;;;;;;;;;5124571;28;1124;-78
2022/04/24 15:02:22;;;;;;;;;;;;;;;;;;5125742;28;1354;-80
2022/04/24 15:04:47;;;;;;;;;;;;;;;;;;5116004;28;1161;-78
2022/04/24 15:07:13;;;;;;;;;;;;;;;;;;5115273;28;1901;-75
2022/04/24 15:09:44;;;;;;;;;;;;;;;;;;5080949;28;1333;-77
2022/04/24 15:12:10;;;;;;;;;;;;;;;;;;5088128;28;1264;-77
2022/04/24 15:14:39;;;;;;;;;;;;;;;;;;5121154;28;1300;-74
2022/04/24 15:17:07;;;;;;;;;;;;;;;;;;5124787;28;1186;-75
2022/04/24 15:19:32;;;;;;;;;;;;;;;;;;5119508;28;1275;-76
2022/04/24 15:21:58;;;;;;;;;;;;;;;;;;5122233;28;1177;-75
2022/04/24 15:24:26;;;;;;;;;;;;;;;;;;5104231;28;1243;-75
2022/04/24 15:26:51;;;;;;;;;;;;;;;;;;5103314;27;1959;-73
2022/04/24 15:29:17;;;;;;;;;;;;;;;;;;5102185;28;1369;-74
2022/04/24 15:31:43;;;;;;;;;;;;;;;;;;5105198;27;1214;-76
2022/04/24 15:34:09;;;;;;;;;;;;;;;;;;5126044;27;1208;-75
2022/04/24 15:36:34;;;;;;;;;;;;;;;;;;5123614;27;1268;-75
2022/04/24 15:39:00;;;;;;;;;;;;;;;;;;5127066;27;1083;-75
2022/04/24 15:41:26;;;;;;;;;;;;;;;;;;5128974;27;1059;-75
2022/04/24 15:43:52;;;;;;;;;;;;;;;;;;5126215;27;1418;-75
2022/04/24 15:46:17;;;;;;;;;;;;;;;;;;5124513;27;1910;-75
2022/04/24 15:48:43;;;;;;;;;;;;;;;;;;5126548;27;1227;-75
2022/04/24 15:51:08;;;;;;;;;;;;;;;;;;5124703;27;1145;-75
2022/04/24 15:53:34;;;;;;;;;;;;;;;;;;5104944;27;1245;-76
2022/04/24 15:55:59;;;;;;;;;;;;;;;;;;5124788;27;1274;-75
2022/04/24 15:58:25;;;;;;;;;;;;;;;;;;5126271;27;1084;-76
2022/04/24 16:00:53;;;;;;;;;;;;;;;;;;5125755;27;1343;-75
2022/04/24 16:03:21;;;;;;;;;;;;;;;;;;5125400;27;1175;-74
2022/04/24 16:05:46;;;;;;;;;;;;;;;;;;5123990;27;1981;-80
2022/04/24 16:08:15;;;;;;;;;;;;;;;;;;5116409;27;1211;-79
2022/04/24 16:10:40;;;;;;;;;;;;;;;;;;5110599;27;1206;-78
2022/04/24 16:13:06;;;;;;;;;;;;;;;;;;5093102;27;1355;-78
2022/04/24 16:15:31;;;;;;;;;;;;;;;;;;5110922;27;1107;-76
2022/04/24 16:17:56;;;;;;;;;;;;;;;;;;5091624;27;1179;-77
2022/04/24 16:20:22;;;;;;;;;;;;;;;;;;5109488;27;1108;-78
2022/04/24 16:22:47;;;;;;;;;;;;;;;;;;5093813;28;1435;-78
2022/04/24 16:25:13;;;;;;;;;;;;;;;;;;5098966;28;1186;-76
2022/04/24 16:27:39;;;;;;;;;;;;;;;;;;5099311;28;1985;-77
2022/04/24 16:30:04;;;;;;;;;;;;;;;;;;5115910;27;1052;-75
2022/04/24 16:32:32;;;;;;;;;;;;;;;;;;5088788;28;1560;-77
2022/04/24 16:34:59;;;;;;;;;;;;;;;;;;5112162;27;1222;-78
2022/04/24 16:37:25;;;;;;;;;;;;;;;;;;5099711;28;1183;-77
2022/04/24 16:39:54;;;;;;;;;;;;;;;;;;5097682;28;1179;-75
2022/04/24 16:42:25;;;;;;;;;;;;;;;;;;5106403;27;1219;-77
2022/04/24 16:44:56;;;;;;;;;;;;;;;;;;5104185;27;1179;-77
2022/04/24 16:47:22;;;;;;;;;;;;;;;;;;5118838;27;1902;-77
2022/04/24 16:49:47;;;;;;;;;;;;;;;;;;5117291;27;1245;-76
2022/04/24 17:00:27;;;;;;;;;;;;;;;;;;5109904;27;1051;-75
2022/04/24 17:02:52;;;;;;;;;;;;;;;;;;5084678;28;1262;-77
2022/04/24 17:05:23;;;;;;;;;;;;;;;;;;5093243;27;1572;-77
2022/04/24 17:07:50;;;;;;;;;;;;;;;;;;5100147;28;1914;-76
2022/04/24 17:10:15;;;;;;;;;;;;;;;;;;5098808;28;1239;-76
2022/04/24 17:12:40;;;;;;;;;;;;;;;;;;5114392;27;1399;-75
2022/04/24 17:15:07;;;;;;;;;;;;;;;;;;5105572;27;1650;-76
2022/04/24 17:17:32;;;;;;;;;;;;;;;;;;5121570;27;1028;-77
2022/04/24 17:19:58;;;;;;;;;;;;;;;;;;5109247;27;1281;-77
2022/04/24 17:22:24;;;;;;;;;;;;;;;;;;5111426;27;1237;-79
2022/04/24 17:24:49;;;;;;;;;;;;;;;;;;5103486;27;1298;-77
2022/04/24 17:27:16;;;;;;;;;;;;;;;;;;5116171;27;1900;-76
2022/04/24 17:29:41;;;;;;;;;;;;;;;;;;5118237;27;1143;-76